Time;durP1;ratioP1;P1;durP2;ratioP2;P2;SDS_P1;SDS_P2;PMS_P1;PMS_P2;Temp;Humidity;BMP_temperature;BMP_pressure;BME280_temperature;BME280_humidity;BME280_pressure;Samples;Min_cycle;Max_cycle;Signal;HPM_P1;HPM_P2
2021/01/24 00:00:11;;;;;;;3.70;3.40;;;1.90;99.90;;;;;;6280072;22;20414;-89
2021/01/24 00:02:38;;;;;;;8.63;4.30;;;2.00;99.90;;;;;;6279915;22;20886;-88
2021/01/24 00:05:07;;;;;;;5.10;4.57;;;2.00;99.90;;;;;;6278974;22;20453;-88
2021/01/24 00:07:33;;;;;;;5.40;4.90;;;2.10;99.90;;;;;;6279225;22;20437;-90
2021/01/24 00:10:00;;;;;;;4.90;4.43;;;2.10;99.90;;;;;;6280369;22;20956;-91
2021/01/24 00:12:26;;;;;;;6.30;4.70;;;2.10;99.90;;;;;;6279231;22;20410;-89
2021/01/24 00:14:53;;;;;;;5.43;4.60;;;2.20;99.90;;;;;;6278434;22;20796;-91
2021/01/24 00:17:19;;;;;;;5.50;5.00;;;2.30;99.90;;;;;;6277566;22;20933;-91
2021/01/24 00:19:46;;;;;;;5.57;5.10;;;2.30;99.90;;;;;;6278297;22;20760;-90
2021/01/24 00:22:13;;;;;;;5.20;4.70;;;2.40;99.90;;;;;;6278530;22;20485;-91
2021/01/24 00:24:40;;;;;;;6.83;5.20;;;2.20;99.90;;;;;;6277933;22;20426;-91
2021/01/24 00:27:06;;;;;;;7.50;5.60;;;2.20;99.90;;;;;;6278054;22;20374;-91
2021/01/24 00:29:32;;;;;;;6.37;5.63;;;2.30;99.90;;;;;;6277501;22;20541;-92
2021/01/24 00:31:59;;;;;;;6.23;5.33;;;2.30;99.90;;;;;;6277468;22;20452;-91
2021/01/24 00:34:25;;;;;;;7.90;5.83;;;2.30;99.90;;;;;;6278422;22;20430;-91
2021/01/24 00:36:52;;;;;;;7.97;6.03;;;2.30;99.90;;;;;;6279020;22;20410;-88
2021/01/24 00:39:19;;;;;;;9.87;5.80;;;2.40;99.90;;;;;;6279453;22;20490;-89
2021/01/24 00:41:46;;;;;;;10.30;6.60;;;2.20;99.90;;;;;;6280168;22;20786;-89
2021/01/24 00:44:13;;;;;;;7.77;6.80;;;2.10;99.90;;;;;;6279835;22;20837;-89
2021/01/24 00:46:39;;;;;;;10.30;6.47;;;2.20;99.90;;;;;;6278208;22;20406;-89
2021/01/24 00:49:06;;;;;;;8.27;6.47;;;2.10;99.90;;;;;;6279291;22;20473;-88
2021/01/24 00:51:32;;;;;;;10.23;6.27;;;2.10;99.90;;;;;;6279368;22;20417;-89
2021/01/24 00:53:59;;;;;;;8.07;6.20;;;1.90;99.90;;;;;;6279349;22;20513;-89
2021/01/24 00:56:26;;;;;;;9.97;6.63;;;2.00;99.90;;;;;;6279251;22;20414;-88
2021/01/24 00:58:52;;;;;;;10.80;6.37;;;2.10;99.90;;;;;;6279506;22;20445;-89
2021/01/24 01:01:19;;;;;;;8.53;6.83;;;2.20;99.90;;;;;;6278618;22;20437;-90
2021/01/24 01:03:45;;;;;;;6.57;5.77;;;2.10;99.90;;;;;;6278437;22;20833;-89
2021/01/24 01:06:12;;;;;;;11.40;7.07;;;2.10;99.90;;;;;;6278204;22;20430;-90
2021/01/24 01:08:39;;;;;;;8.40;7.23;;;2.00;99.90;;;;;;6277842;22;20960;-91
2021/01/24 01:11:05;;;;;;;11.77;6.90;;;2.10;99.90;;;;;;6278381;22;20433;-89
2021/01/24 01:13:32;;;;;;;9.37;7.47;;;2.20;99.90;;;;;;6279764;22;20430;-89
2021/01/24 01:16:01;;;;;;;11.53;7.73;;;2.20;99.90;;;;;;6279837;22;20463;-88
2021/01/24 01:18:27;;;;;;;10.50;7.77;;;2.20;99.90;;;;;;6280960;22;20405;-89
2021/01/24 01:20:54;;;;;;;9.07;7.80;;;2.20;99.90;;;;;;6281786;22;20437;-89
2021/01/24 01:23:20;;;;;;;9.80;7.13;;;2.20;99.90;;;;;;6280265;22;20441;-88
2021/01/24 01:25:47;;;;;;;13.10;8.17;;;2.10;99.90;;;;;;6280253;22;20456;-88
2021/01/24 01:28:13;;;;;;;8.47;7.50;;;2.10;99.90;;;;;;6281839;22;20410;-87
2021/01/24 01:30:41;;;;;;;10.53;7.83;;;2.10;99.90;;;;;;6282525;22;20459;-88
2021/01/24 01:33:07;;;;;;;9.10;7.63;;;2.00;99.90;;;;;;6281343;22;20440;-89
2021/01/24 01:35:33;;;;;;;8.87;7.93;;;1.80;99.90;;;;;;6279990;22;20518;-89
2021/01/24 01:38:00;;;;;;;10.97;7.53;;;1.80;99.90;;;;;;6279878;22;20481;-90
2021/01/24 01:40:27;;;;;;;8.10;7.00;;;1.80;99.90;;;;;;6280502;22;20434;-89
2021/01/24 01:42:53;;;;;;;7.60;6.90;;;1.80;99.90;;;;;;6282381;22;20762;-90
2021/01/24 01:45:20;;;;;;;12.40;6.83;;;1.90;99.90;;;;;;6280331;22;20426;-89
2021/01/24 01:47:48;;;;;;;7.30;6.47;;;1.90;99.90;;;;;;6280976;22;20433;-91
2021/01/24 01:50:18;;;;;;;8.47;6.57;;;1.90;99.90;;;;;;6279736;22;20468;-89
2021/01/24 01:52:45;;;;;;;7.43;6.73;;;1.90;99.90;;;;;;6280635;22;20476;-89
2021/01/24 01:55:12;;;;;;;9.73;7.60;;;2.00;99.90;;;;;;6280932;22;20430;-90
2021/01/24 01:57:39;;;;;;;8.17;7.00;;;1.90;99.90;;;;;;6279662;22;20402;-91
2021/01/24 02:00:06;;;;;;;8.53;7.53;;;1.80;99.90;;;;;;6279534;22;20513;-91
2021/01/24 02:02:45;;;;;;;10.43;8.10;;;1.90;99.90;;;;;;6280185;22;20406;-91
2021/01/24 02:05:19;;;;;;;9.17;7.43;;;1.80;99.90;;;;;;6280793;22;20430;-89
2021/01/24 02:07:59;;;;;;;9.80;8.23;;;1.80;99.90;;;;;;6280447;22;20441;-93
2021/01/24 02:10:32;;;;;;;10.30;8.97;;;2.00;99.90;;;;;;6279423;22;20512;-91
2021/01/24 02:13:07;;;;;;;10.03;8.17;;;2.10;99.90;;;;;;6278421;22;20434;-91
2021/01/24 02:15:36;;;;;;;9.73;8.73;;;2.20;99.90;;;;;;6278645;22;20430;-92
2021/01/24 02:18:06;;;;;;;12.50;9.00;;;2.10;99.90;;;;;;6278914;22;20383;-92
2021/01/24 02:20:45;;;;;;;13.60;9.43;;;2.00;99.90;;;;;;6279424;22;20536;-90
2021/01/24 02:23:13;;;;;;;11.87;9.97;;;1.90;99.90;;;;;;6279057;22;20409;-90
2021/01/24 02:25:46;;;;;;;12.43;9.10;;;1.90;99.90;;;;;;6279197;22;20798;-91
2021/01/24 02:28:23;;;;;;;13.33;9.67;;;2.00;99.90;;;;;;6278443;22;20483;-93
2021/01/24 02:30:51;;;;;;;11.33;9.80;;;2.00;99.90;;;;;;6278527;22;20499;-91
2021/01/24 02:33:22;;;;;;;12.90;9.47;;;2.00;99.90;;;;;;6279082;22;20481;-91
2021/01/24 02:35:52;;;;;;;12.80;8.67;;;1.90;99.90;;;;;;6278450;22;20426;-92
2021/01/24 02:38:19;;;;;;;18.03;10.43;;;2.00;99.90;;;;;;6279411;22;20402;-90
2021/01/24 02:40:46;;;;;;;12.40;9.57;;;2.00;99.90;;;;;;6278773;22;20486;-91
2021/01/24 02:43:15;;;;;;;11.97;9.00;;;2.00;99.90;;;;;;6279460;22;20756;-90
2021/01/24 02:45:42;;;;;;;12.67;8.83;;;2.20;99.90;;;;;;6278428;22;20604;-92
2021/01/24 02:48:11;;;;;;;14.93;9.23;;;2.20;99.90;;;;;;6278798;22;20399;-90
2021/01/24 02:50:40;;;;;;;11.67;8.40;;;2.00;99.90;;;;;;6279197;22;20476;-90
2021/01/24 02:53:07;;;;;;;12.23;9.13;;;2.10;99.90;;;;;;6280260;22;20436;-90
2021/01/24 02:55:34;;;;;;;16.53;8.63;;;2.10;99.90;;;;;;6278975;22;20957;-90
2021/01/24 02:58:00;;;;;;;15.50;9.50;;;2.00;99.90;;;;;;6279617;22;20398;-90
2021/01/24 03:00:27;;;;;;;15.40;8.57;;;2.00;99.90;;;;;;6280286;22;20452;-90
2021/01/24 03:02:54;;;;;;;11.93;7.87;;;1.90;99.90;;;;;;6280169;22;20406;-90
2021/01/24 03:05:23;;;;;;;12.67;7.90;;;1.80;99.90;;;;;;6279327;22;20430;-90
2021/01/24 03:07:50;;;;;;;15.03;7.70;;;1.80;99.90;;;;;;6280472;22;20400;-89
2021/01/24 03:10:17;;;;;;;15.17;8.87;;;1.80;99.90;;;;;;6280598;22;20442;-90
2021/01/24 03:12:51;;;;;;;15.93;8.63;;;2.00;99.90;;;;;;6279764;22;20468;-90
2021/01/24 03:15:21;;;;;;;15.57;9.33;;;1.90;99.90;;;;;;6279171;22;20929;-89
2021/01/24 03:17:49;;;;;;;15.53;8.57;;;1.90;99.90;;;;;;6279350;22;20438;-89
2021/01/24 03:20:18;;;;;;;14.10;9.23;;;2.00;99.90;;;;;;6281145;22;20403;-90
2021/01/24 03:22:47;;;;;;;13.67;8.80;;;2.10;99.90;;;;;;6280136;22;20413;-89
2021/01/24 03:25:15;;;;;;;15.20;9.30;;;2.10;99.90;;;;;;6280563;22;20434;-89
2021/01/24 03:27:42;;;;;;;19.80;9.47;;;2.10;99.90;;;;;;6279620;22;20411;-89
2021/01/24 03:30:11;;;;;;;15.27;8.73;;;2.10;99.90;;;;;;6279395;22;20482;-89
2021/01/24 03:32:37;;;;;;;20.40;12.57;;;2.20;99.90;;;;;;6278192;22;20432;-91
2021/01/24 03:35:05;;;;;;;18.23;10.10;;;2.20;99.90;;;;;;6278421;22;20197;-91
2021/01/24 03:37:32;;;;;;;15.33;9.83;;;2.10;99.90;;;;;;6278373;22;20973;-91
2021/01/24 03:39:59;;;;;;;17.87;8.70;;;2.10;99.90;;;;;;6278259;22;20442;-92
2021/01/24 03:42:28;;;;;;;15.10;9.37;;;2.10;99.90;;;;;;6278308;22;20390;-89
2021/01/24 03:44:54;;;;;;;16.20;9.97;;;2.20;99.90;;;;;;6278132;22;20426;-91
2021/01/24 03:47:21;;;;;;;17.83;10.17;;;2.20;99.90;;;;;;6277866;22;20409;-91
2021/01/24 03:49:47;;;;;;;12.23;9.13;;;2.20;99.90;;;;;;6277319;22;20442;-90
2021/01/24 03:52:13;;;;;;;13.23;9.30;;;2.30;99.90;;;;;;6277838;22;20497;-91
2021/01/24 03:54:40;;;;;;;19.67;10.87;;;2.30;99.90;;;;;;6278772;22;20477;-91
2021/01/24 03:57:07;;;;;;;14.67;9.63;;;2.30;99.90;;;;;;6279324;22;20991;-89
2021/01/24 03:59:34;;;;;;;15.20;9.97;;;2.30;99.90;;;;;;6280123;22;20379;-91
2021/01/24 04:02:00;;;;;;;17.57;9.33;;;2.20;99.90;;;;;;6280352;22;20406;-91
2021/01/24 04:04:26;;;;;;;19.33;10.00;;;2.10;99.90;;;;;;6279475;22;20815;-91
2021/01/24 04:06:53;;;;;;;15.57;9.93;;;2.10;99.90;;;;;;6279853;22;20433;-88
2021/01/24 04:09:19;;;;;;;16.23;9.73;;;2.20;99.90;;;;;;6279246;22;20442;-91
2021/01/24 04:11:46;;;;;;;16.43;10.77;;;2.20;99.90;;;;;;6281697;22;20445;-90
2021/01/24 04:14:13;;;;;;;15.13;9.80;;;2.10;99.90;;;;;;6281604;22;20431;-90
2021/01/24 04:16:39;;;;;;;19.50;10.50;;;2.00;99.90;;;;;;6280534;22;20918;-90
2021/01/24 04:19:06;;;;;;;12.63;9.13;;;2.10;99.90;;;;;;6279987;22;20414;-90
2021/01/24 04:21:32;;;;;;;15.93;10.23;;;2.10;99.90;;;;;;6278925;22;20398;-91
2021/01/24 04:23:59;;;;;;;18.50;10.97;;;2.10;99.90;;;;;;6277651;22;20453;-90
2021/01/24 04:26:25;;;;;;;19.67;10.93;;;2.20;99.90;;;;;;6279192;22;20426;-90
2021/01/24 04:28:51;;;;;;;17.83;10.60;;;2.20;99.90;;;;;;6279573;22;20465;-91
2021/01/24 04:31:19;;;;;;;18.03;11.60;;;2.20;99.90;;;;;;6278454;22;20452;-90
2021/01/24 04:33:45;;;;;;;14.73;10.97;;;2.10;99.90;;;;;;6278070;22;20497;-90
2021/01/24 04:36:11;;;;;;;15.47;10.03;;;2.10;99.90;;;;;;6277510;22;20477;-90
2021/01/24 04:38:38;;;;;;;12.83;9.10;;;2.10;99.90;;;;;;6277387;22;20490;-91
2021/01/24 04:41:04;;;;;;;17.27;9.07;;;2.00;99.90;;;;;;6277666;22;20449;-91
2021/01/24 04:43:32;;;;;;;18.67;9.90;;;2.00;99.90;;;;;;6278229;22;20837;-92
2021/01/24 04:45:59;;;;;;;17.13;10.07;;;2.20;99.90;;;;;;6277490;22;20410;-90
2021/01/24 04:48:27;;;;;;;18.73;9.13;;;2.00;99.90;;;;;;6278176;22;20493;-91
2021/01/24 04:50:54;;;;;;;17.70;9.70;;;2.00;99.90;;;;;;6278363;22;20398;-90
2021/01/24 04:53:21;;;;;;;17.37;9.60;;;2.10;99.90;;;;;;6277603;22;20800;-92
2021/01/24 04:55:48;;;;;;;15.07;9.40;;;2.20;99.90;;;;;;6278149;22;20468;-92
2021/01/24 04:58:15;;;;;;;15.63;9.13;;;2.20;99.90;;;;;;6277459;22;20407;-91
2021/01/24 05:00:42;;;;;;;20.40;10.80;;;2.20;99.90;;;;;;6277595;22;20510;-91
2021/01/24 05:03:08;;;;;;;19.83;8.90;;;2.30;99.90;;;;;;6278030;22;20489;-91
2021/01/24 05:05:36;;;;;;;14.63;10.60;;;2.20;99.90;;;;;;6277870;22;20513;-91
2021/01/24 05:08:07;;;;;;;15.13;9.30;;;2.30;99.90;;;;;;6277556;22;20544;-91
2021/01/24 05:10:34;;;;;;;17.70;9.00;;;2.20;99.90;;;;;;6278069;22;20444;-92
2021/01/24 05:13:00;;;;;;;15.33;9.53;;;2.20;99.90;;;;;;6277474;22;20437;-93
2021/01/24 05:15:28;;;;;;;18.97;9.20;;;2.10;99.90;;;;;;6277504;22;20510;-90
2021/01/24 05:17:56;;;;;;;14.77;9.13;;;2.10;99.90;;;;;;6277516;22;20466;-92
2021/01/24 05:20:24;;;;;;;15.47;9.97;;;2.10;99.90;;;;;;6277763;22;20760;-91
2021/01/24 05:22:51;;;;;;;11.97;7.80;;;2.30;99.90;;;;;;6277363;22;20481;-93
2021/01/24 05:25:20;;;;;;;17.40;9.33;;;2.40;99.90;;;;;;6277081;22;20509;-91
2021/01/24 05:27:47;;;;;;;15.80;8.80;;;2.40;99.90;;;;;;6277730;22;20485;-91
2021/01/24 05:30:20;;;;;;;11.60;8.60;;;2.30;99.90;;;;;;6277368;22;20473;-91
2021/01/24 05:32:46;;;;;;;12.03;9.00;;;2.30;99.90;;;;;;6277209;22;20926;-91
2021/01/24 05:35:16;;;;;;;13.93;8.60;;;2.20;99.90;;;;;;6277323;22;20503;-91
2021/01/24 05:37:46;;;;;;;13.63;8.63;;;2.10;99.90;;;;;;6277173;22;20951;-92
2021/01/24 05:40:14;;;;;;;13.63;8.30;;;2.10;99.90;;;;;;6277544;22;20407;-90
2021/01/24 05:42:42;;;;;;;18.00;9.50;;;1.90;99.90;;;;;;6277834;22;20874;-90
2021/01/24 05:45:13;;;;;;;11.60;8.03;;;1.90;99.90;;;;;;6277624;22;20454;-91
2021/01/24 05:47:42;;;;;;;17.90;9.43;;;1.80;99.90;;;;;;6277290;22;20430;-93
2021/01/24 05:50:10;;;;;;;10.97;7.80;;;1.80;99.90;;;;;;6277989;22;20422;-91
2021/01/24 05:52:39;;;;;;;12.60;8.00;;;1.90;99.90;;;;;;6278161;22;20407;-89
2021/01/24 05:55:07;;;;;;;14.93;8.30;;;2.00;99.90;;;;;;6276129;22;20426;-92
2021/01/24 05:57:37;;;;;;;18.57;8.43;;;1.90;99.90;;;;;;6277498;22;20471;-91
2021/01/24 06:00:06;;;;;;;15.00;8.70;;;2.00;99.90;;;;;;6277830;22;20908;-91
2021/01/24 06:02:32;;;;;;;11.47;8.47;;;2.10;99.90;;;;;;6277598;22;20742;-91
2021/01/24 06:04:59;;;;;;;11.57;8.40;;;2.00;99.90;;;;;;6279449;22;20999;-90
2021/01/24 06:07:25;;;;;;;13.47;9.03;;;2.00;99.90;;;;;;6279377;22;20402;-90
2021/01/24 06:09:52;;;;;;;13.17;9.37;;;1.90;99.90;;;;;;6278888;22;20438;-91
2021/01/24 06:12:23;;;;;;;13.00;9.13;;;1.90;99.90;;;;;;6279848;22;20405;-93
2021/01/24 06:14:51;;;;;;;14.57;9.37;;;1.90;99.90;;;;;;6279456;22;20430;-91
2021/01/24 06:17:34;;;;;;;16.47;12.20;;;1.90;99.90;;;;;;6278351;22;20708;-91
2021/01/24 06:20:04;;;;;;;15.60;9.50;;;1.90;99.90;;;;;;6280184;22;20444;-91
2021/01/24 06:22:38;;;;;;;13.50;8.70;;;2.10;99.90;;;;;;6279932;22;20466;-90
2021/01/24 06:25:11;;;;;;;13.53;9.00;;;2.10;99.90;;;;;;6279943;22;20430;-89
2021/01/24 06:27:43;;;;;;;16.00;9.17;;;2.10;99.90;;;;;;6278844;22;20490;-91
2021/01/24 06:30:14;;;;;;;12.63;8.43;;;2.00;99.90;;;;;;6278693;22;20913;-92
2021/01/24 06:32:41;;;;;;;15.83;9.27;;;2.10;99.90;;;;;;6278424;22;20438;-93
2021/01/24 06:35:20;;;;;;;14.20;9.03;;;2.20;99.90;;;;;;6279276;22;20515;-91
2021/01/24 06:37:51;;;;;;;15.87;9.67;;;2.10;99.90;;;;;;6278705;22;20493;-91
2021/01/24 06:40:29;;;;;;;15.07;9.30;;;2.00;99.90;;;;;;6279017;22;20433;-94
2021/01/24 06:42:58;;;;;;;11.87;9.63;;;1.90;99.90;;;;;;6278547;22;20463;-90
2021/01/24 06:45:44;;;;;;;15.10;10.20;;;1.90;99.90;;;;;;6279378;22;20749;-91
2021/01/24 06:48:14;;;;;;;12.93;9.83;;;2.00;99.90;;;;;;6278577;22;20485;-92
2021/01/24 06:50:43;;;;;;;21.35;14.60;;;1.90;99.90;;;;;;6277603;22;20435;-91
2021/01/24 06:53:11;;;;;;;15.87;11.17;;;1.90;99.90;;;;;;6278361;22;20211;-92
2021/01/24 06:55:38;;;;;;;18.80;11.33;;;2.00;99.90;;;;;;6278608;22;20430;-91
2021/01/24 06:58:47;;;;;;;17.23;10.43;;;1.90;99.90;;;;;;6278844;22;20465;-94
2021/01/24 07:01:28;;;;;;;19.30;9.80;;;1.90;99.90;;;;;;6185207;23;20463;-93
2021/01/24 07:04:43;;;;;;;19.03;9.23;;;1.90;99.90;;;;;;6185161;23;20975;-91
2021/01/24 07:07:32;;;;;;;15.07;9.83;;;2.00;99.90;;;;;;6273013;22;20413;-90
2021/01/24 07:09:59;;;;;;;13.07;9.27;;;2.00;99.90;;;;;;6278320;22;20422;-90
2021/01/24 07:12:37;;;;;;;14.40;10.10;;;2.00;99.90;;;;;;6278897;22;20417;-90
2021/01/24 07:15:05;;;;;;;14.23;10.67;;;1.90;99.90;;;;;;6285149;22;20414;-91
2021/01/24 07:17:33;;;;;;;15.37;10.53;;;2.00;99.90;;;;;;6283511;22;20973;-90
2021/01/24 07:20:01;;;;;;;17.67;11.07;;;1.90;99.90;;;;;;6284860;22;20378;-90
2021/01/24 07:22:29;;;;;;;17.50;10.40;;;1.90;99.90;;;;;;6280444;22;20402;-89
2021/01/24 07:24:56;;;;;;;14.47;10.00;;;1.90;99.90;;;;;;6278709;22;20484;-90
2021/01/24 07:27:24;;;;;;;14.53;10.93;;;2.00;99.90;;;;;;6278648;22;20429;-91
2021/01/24 07:29:50;;;;;;;17.97;10.43;;;1.80;99.90;;;;;;6278197;22;20528;-92
2021/01/24 07:32:20;;;;;;;13.30;9.97;;;1.60;99.90;;;;;;6278124;22;20445;-91
2021/01/24 07:34:49;;;;;;;15.47;10.40;;;1.60;99.90;;;;;;6278281;22;20458;-92
2021/01/24 07:37:16;;;;;;;13.47;9.53;;;1.50;99.90;;;;;;6277945;22;20440;-90
2021/01/24 07:39:44;;;;;;;15.57;10.37;;;1.60;99.90;;;;;;6277582;22;20452;-91
2021/01/24 07:42:11;;;;;;;15.07;9.87;;;1.80;99.90;;;;;;6278282;22;20498;-91
2021/01/24 07:44:38;;;;;;;16.20;10.27;;;1.80;99.90;;;;;;6278426;22;20497;-90
2021/01/24 07:47:04;;;;;;;14.97;10.63;;;1.90;99.90;;;;;;6278041;22;20940;-91
2021/01/24 07:49:31;;;;;;;14.30;10.43;;;1.80;99.90;;;;;;6278097;22;21052;-90
2021/01/24 07:51:58;;;;;;;16.43;10.70;;;1.90;99.90;;;;;;6278343;22;20453;-90
2021/01/24 07:54:25;;;;;;;15.90;10.57;;;1.90;99.90;;;;;;6277840;22;20493;-92
2021/01/24 07:56:52;;;;;;;18.03;10.87;;;1.90;99.90;;;;;;6278463;22;20402;-90
2021/01/24 07:59:19;;;;;;;14.63;9.70;;;1.90;99.90;;;;;;6278103;22;20430;-90
2021/01/24 08:01:45;;;;;;;16.30;10.30;;;1.90;99.90;;;;;;6278096;22;20513;-91
2021/01/24 08:04:12;;;;;;;12.77;10.00;;;1.80;99.90;;;;;;6278272;22;20449;-91
2021/01/24 08:06:40;;;;;;;17.50;10.93;;;1.70;99.90;;;;;;6277807;22;20431;-93
2021/01/24 08:09:09;;;;;;;15.67;10.37;;;1.80;99.90;;;;;;6278118;22;20529;-91
2021/01/24 08:11:36;;;;;;;14.97;9.80;;;1.80;99.90;;;;;;6279141;22;20403;-89
2021/01/24 08:14:04;;;;;;;18.87;10.83;;;1.80;99.90;;;;;;6278957;22;20430;-91
2021/01/24 08:16:34;;;;;;;16.93;11.77;;;1.90;99.90;;;;;;6278973;22;20429;-92
2021/01/24 08:19:02;;;;;;;17.03;12.17;;;1.70;99.90;;;;;;6278986;22;20433;-92
2021/01/24 08:21:30;;;;;;;20.47;11.97;;;1.70;99.90;;;;;;6278570;22;20398;-92
2021/01/24 08:23:56;;;;;;;13.80;10.63;;;1.60;99.90;;;;;;6278515;22;20450;-90
2021/01/24 08:26:24;;;;;;;16.87;10.50;;;1.50;99.90;;;;;;6276778;22;20402;-90
2021/01/24 08:28:51;;;;;;;14.43;9.77;;;1.50;99.90;;;;;;6280048;22;20384;-92
2021/01/24 08:31:19;;;;;;;15.70;9.87;;;1.50;99.90;;;;;;6280151;22;20449;-92
2021/01/24 08:33:46;;;;;;;12.87;9.73;;;1.60;99.90;;;;;;6277268;22;20493;-91
2021/01/24 08:36:14;;;;;;;15.07;9.37;;;1.60;99.90;;;;;;6277473;22;20485;-91
2021/01/24 08:38:41;;;;;;;16.57;9.43;;;1.60;99.90;;;;;;6277659;22;20407;-93
2021/01/24 08:41:08;;;;;;;15.53;10.67;;;1.70;99.90;;;;;;6276570;22;20398;-92
2021/01/24 08:43:35;;;;;;;16.43;10.03;;;1.70;99.90;;;;;;6276731;22;20445;-92
2021/01/24 08:46:18;;;;;;;13.23;9.50;;;1.70;99.90;;;;;;6276269;22;20433;-92
2021/01/24 08:48:45;;;;;;;17.70;10.60;;;1.80;99.90;;;;;;6276314;22;20475;-93
2021/01/24 08:51:11;;;;;;;12.50;9.67;;;2.00;99.90;;;;;;6277311;22;20499;-91
2021/01/24 08:53:38;;;;;;;15.50;10.63;;;1.90;99.90;;;;;;6275922;22;20407;-92
2021/01/24 08:56:05;;;;;;;16.17;11.03;;;1.90;99.90;;;;;;6276470;22;20485;-92
2021/01/24 08:58:31;;;;;;;17.03;11.03;;;2.00;99.90;;;;;;6276350;22;20444;-94
2021/01/24 09:01:06;;;;;;;21.97;10.80;;;2.10;99.90;;;;;;6276607;22;20920;-92
2021/01/24 09:03:32;;;;;;;16.73;11.27;;;2.10;99.90;;;;;;6276445;22;20413;-92
2021/01/24 09:06:15;;;;;;;16.13;11.47;;;2.20;99.90;;;;;;6276573;22;20461;-94
2021/01/24 09:08:48;;;;;;;17.90;12.20;;;2.20;99.90;;;;;;6276925;22;20905;-92
2021/01/24 09:11:16;;;;;;;19.70;12.40;;;2.10;99.90;;;;;;6277180;22;20438;-91
2021/01/24 09:13:42;;;;;;;15.17;10.93;;;2.20;99.90;;;;;;6276243;22;20413;-92
2021/01/24 09:16:10;;;;;;;13.47;11.17;;;2.30;99.90;;;;;;6276888;22;20878;-91
2021/01/24 09:18:36;;;;;;;13.90;10.67;;;2.40;99.90;;;;;;6276445;22;20467;-91
2021/01/24 09:21:06;;;;;;;17.67;11.63;;;2.50;99.90;;;;;;6276016;22;20425;-91
2021/01/24 09:23:32;;;;;;;18.50;11.63;;;2.50;99.90;;;;;;6276233;22;20414;-92
2021/01/24 09:25:59;;;;;;;17.43;11.50;;;2.50;99.90;;;;;;6278853;22;20427;-91
2021/01/24 09:28:26;;;;;;;17.47;12.13;;;2.50;99.90;;;;;;6276882;22;20425;-92
2021/01/24 09:30:53;;;;;;;18.10;12.00;;;2.50;99.90;;;;;;6249304;22;625652;-93
2021/01/24 09:33:20;;;;;;;19.37;12.30;;;2.50;99.90;;;;;;6277306;22;20177;-92
2021/01/24 09:35:47;;;;;;;18.33;12.43;;;2.70;99.90;;;;;;6278108;22;20470;-91
2021/01/24 09:38:13;;;;;;;16.17;11.17;;;2.80;99.90;;;;;;6280291;22;20854;-91
2021/01/24 09:40:40;;;;;;;18.87;11.53;;;2.70;99.90;;;;;;6280355;22;20486;-93
2021/01/24 09:43:06;;;;;;;15.03;11.00;;;2.80;99.90;;;;;;6279861;22;20418;-91
2021/01/24 09:45:34;;;;;;;15.67;11.03;;;3.00;99.90;;;;;;6279770;22;20463;-91
2021/01/24 09:48:00;;;;;;;16.83;11.60;;;2.90;99.90;;;;;;6279719;22;20394;-94
2021/01/24 09:50:29;;;;;;;15.10;10.53;;;2.80;99.90;;;;;;6280055;22;20441;-93
2021/01/24 09:52:55;;;;;;;22.83;10.77;;;2.90;99.90;;;;;;6279523;22;20426;-92
2021/01/24 09:55:21;;;;;;;18.20;11.33;;;3.00;99.90;;;;;;6279594;22;20490;-92
2021/01/24 09:57:48;;;;;;;15.67;12.13;;;3.10;99.90;;;;;;6279959;22;20410;-91
2021/01/24 10:00:15;;;;;;;15.10;11.60;;;3.10;99.90;;;;;;6279311;22;20471;-92
2021/01/24 10:02:41;;;;;;;18.15;13.70;;;3.10;99.90;;;;;;6279027;22;20399;-91
2021/01/24 10:05:09;;;;;;;16.10;12.50;;;3.20;99.90;;;;;;6278988;22;20232;-91
2021/01/24 10:07:40;;;;;;;17.77;11.90;;;3.30;99.90;;;;;;6279531;22;20481;-92
2021/01/24 10:10:12;;;;;;;17.37;11.20;;;3.40;99.90;;;;;;6279721;22;20441;-92
2021/01/24 10:12:38;;;;;;;15.73;12.03;;;3.40;99.90;;;;;;6279979;22;20802;-93
2021/01/24 10:15:08;;;;;;;19.57;12.87;;;3.30;99.90;;;;;;6281557;22;20925;-90
2021/01/24 10:17:35;;;;;;;16.37;11.83;;;3.20;99.90;;;;;;6282713;22;20406;-91
2021/01/24 10:20:01;;;;;;;15.93;11.50;;;3.20;99.90;;;;;;6280737;22;20416;-94
2021/01/24 10:22:27;;;;;;;20.73;14.57;;;3.10;99.90;;;;;;6280447;22;20792;-90
2021/01/24 10:24:55;;;;;;;23.43;16.03;;;3.20;99.90;;;;;;6279094;22;20513;-90
2021/01/24 10:27:21;;;;;;;24.43;16.03;;;3.10;99.90;;;;;;6278988;22;20413;-91
2021/01/24 10:29:48;;;;;;;19.03;13.00;;;3.20;99.90;;;;;;6278923;22;20446;-93
2021/01/24 10:32:14;;;;;;;17.47;12.67;;;3.20;99.90;;;;;;6277679;22;20502;-90
2021/01/24 10:34:40;;;;;;;21.67;17.45;;;3.20;99.90;;;;;;6278036;22;20392;-92
2021/01/24 10:37:07;;;;;;;18.40;13.27;;;3.30;99.90;;;;;;6278842;22;20212;-92
2021/01/24 10:39:33;;;;;;;20.30;13.57;;;3.30;99.90;;;;;;6279009;22;20414;-91
2021/01/24 10:42:01;;;;;;;19.77;12.27;;;3.30;99.90;;;;;;6278406;22;20466;-92
2021/01/24 10:44:27;;;;;;;19.57;13.07;;;3.40;99.90;;;;;;6279509;22;20511;-92
2021/01/24 10:46:53;;;;;;;15.50;11.70;;;3.40;99.90;;;;;;6278170;22;20468;-91
2021/01/24 10:49:20;;;;;;;17.33;12.37;;;3.60;99.90;;;;;;6277699;22;20402;-92
2021/01/24 10:51:46;;;;;;;15.87;11.73;;;3.60;99.90;;;;;;6278494;22;20485;-92
2021/01/24 10:54:12;;;;;;;19.87;11.50;;;3.50;99.90;;;;;;6278590;22;20435;-90
2021/01/24 10:56:39;;;;;;;14.73;11.10;;;3.50;99.90;;;;;;6278287;22;20443;-92
2021/01/24 10:59:08;;;;;;;20.27;12.00;;;3.30;99.90;;;;;;6278488;22;20399;-91
2021/01/24 11:01:35;;;;;;;20.60;11.20;;;3.30;99.90;;;;;;6278641;22;20422;-91
2021/01/24 11:04:01;;;;;;;21.10;13.03;;;3.20;99.90;;;;;;6278750;22;20430;-92
2021/01/24 11:06:27;;;;;;;22.80;12.23;;;3.30;99.90;;;;;;6278324;22;20998;-91
2021/01/24 11:08:54;;;;;;;21.20;11.30;;;3.30;99.90;;;;;;6278114;22;20414;-90
2021/01/24 11:11:22;;;;;;;18.30;12.53;;;3.50;99.90;;;;;;6278345;22;20503;-92
2021/01/24 11:13:48;;;;;;;20.10;11.80;;;3.50;99.90;;;;;;6278691;22;20425;-91
2021/01/24 11:16:16;;;;;;;17.27;11.07;;;3.50;99.90;;;;;;6277377;22;20490;-91
2021/01/24 11:18:42;;;;;;;14.80;10.37;;;3.60;99.90;;;;;;6279145;22;20804;-94
2021/01/24 11:21:08;;;;;;;19.47;11.77;;;3.70;99.90;;;;;;6282479;22;20464;-94
2021/01/24 11:23:35;;;;;;;18.00;11.73;;;3.80;99.90;;;;;;6280650;22;20426;-93
2021/01/24 11:26:02;;;;;;;22.43;12.10;;;3.90;99.90;;;;;;6281718;22;20402;-95
2021/01/24 11:28:28;;;;;;;18.43;12.40;;;3.80;99.90;;;;;;6284722;22;20418;-95
2021/01/24 11:30:55;;;;;;;17.70;10.57;;;3.90;99.90;;;;;;6288391;22;20476;-94
2021/01/24 11:33:23;;;;;;;14.63;10.23;;;3.80;99.90;;;;;;6294472;22;20449;-93
2021/01/24 11:35:50;;;;;;;13.43;9.77;;;3.90;99.90;;;;;;6297020;22;20461;-95
2021/01/24 11:38:16;;;;;;;11.47;9.27;;;3.90;99.90;;;;;;6280789;22;20406;-92
2021/01/24 11:40:43;;;;;;;13.60;10.20;;;4.00;99.90;;;;;;6278020;22;20481;-90
2021/01/24 11:43:09;;;;;;;14.43;10.27;;;3.90;99.90;;;;;;6277564;22;20792;-92
2021/01/24 11:45:35;;;;;;;15.57;9.57;;;3.90;99.90;;;;;;6277940;22;20951;-91
2021/01/24 11:48:02;;;;;;;15.73;10.53;;;3.80;99.90;;;;;;6278009;22;20886;-92
2021/01/24 11:50:29;;;;;;;11.73;9.40;;;3.80;99.90;;;;;;6278131;22;21016;-93
2021/01/24 11:52:56;;;;;;;16.57;11.57;;;3.90;99.90;;;;;;6278278;22;20417;-92
2021/01/24 11:55:22;;;;;;;14.97;9.77;;;3.90;99.90;;;;;;6278719;22;21013;-91
2021/01/24 11:57:48;;;;;;;14.53;10.37;;;3.90;99.90;;;;;;6278493;22;20398;-91
2021/01/24 12:00:16;;;;;;;14.83;10.07;;;4.00;99.90;;;;;;6277811;22;20413;-90
2021/01/24 12:02:42;;;;;;;24.93;12.77;;;4.00;99.90;;;;;;6277593;22;20464;-93
2021/01/24 12:05:10;;;;;;;17.97;10.90;;;4.10;99.90;;;;;;6278256;22;20422;-91
2021/01/24 12:07:37;;;;;;;14.47;10.63;;;4.10;99.90;;;;;;6277588;22;20416;-92
2021/01/24 12:10:04;;;;;;;16.17;10.17;;;4.10;99.90;;;;;;6277900;22;20442;-90
2021/01/24 12:12:31;;;;;;;12.67;9.70;;;4.10;99.90;;;;;;6277702;22;20464;-91
2021/01/24 12:14:57;;;;;;;14.37;9.53;;;4.20;99.90;;;;;;6277981;22;20536;-91
2021/01/24 12:17:24;;;;;;;13.07;9.67;;;4.20;99.90;;;;;;6277870;22;20397;-91
2021/01/24 12:19:51;;;;;;;12.77;9.37;;;4.20;99.90;;;;;;6277658;22;20418;-92
2021/01/24 12:22:17;;;;;;;14.20;10.00;;;4.10;99.90;;;;;;6278300;22;20399;-91
2021/01/24 12:24:45;;;;;;;12.03;8.90;;;4.10;99.90;;;;;;6278653;22;20513;-91
2021/01/24 12:27:11;;;;;;;11.13;7.90;;;4.20;99.90;;;;;;6278829;22;20421;-91
2021/01/24 12:29:38;;;;;;;12.40;8.67;;;4.10;99.90;;;;;;6278459;22;20492;-91
2021/01/24 12:32:05;;;;;;;10.63;7.87;;;4.10;99.90;;;;;;6278428;22;20943;-90
2021/01/24 12:34:32;;;;;;;12.07;7.97;;;4.10;99.90;;;;;;6277444;22;20963;-92
2021/01/24 12:37:13;;;;;;;11.43;7.73;;;4.10;99.90;;;;;;6277789;22;20477;-91
2021/01/24 12:39:40;;;;;;;12.33;7.43;;;4.20;99.90;;;;;;6277761;22;20528;-93
2021/01/24 12:42:08;;;;;;;13.17;7.77;;;4.20;99.90;;;;;;6277563;22;20485;-94
2021/01/24 12:44:34;;;;;;;12.60;8.07;;;4.20;99.90;;;;;;6278100;22;20786;-95
2021/01/24 12:47:00;;;;;;;9.63;7.27;;;4.20;99.90;;;;;;6277900;22;20870;-95